Aérodrome :
LOGIN :

S'inscrire | Disclaimer

   EN    FR    IT 

 










Légende :    VFR   VFR Marginal   IFR   IFR Intensif   IFR Très Intensif
Visi : 
Plafond : 
>= 8 km
>= 3000ft
5 à 8 km
1000 à 3000 ft
1500m à 5 km
500 à 1000 ft
800 à 1500m
200 à 500 ft
< 800m
< 200 ft
Symboles :   Orages  Brouillard  Fortes neiges  Fortes précipitations  Vent > 20 kt
SIGMETs :   Divers  Orages  Givrage  Turbulence  Onde Orograph.  Cendres Volcan.







- Altitude de l'aérodrome : 7 ft
- Code IATA : VCE


LIPZ - Marco Polo Int. Venezia

DERNIER METAR :
  • 261720Z 16012KT 8000 SCT018 BKN060 15/13 Q1008 NOSIG

METARs EXPIRÉS :
  • 261650Z 16010KT 9000 SCT020 BKN070 15/13 Q1008 NOSIG
  • 261620Z 15014KT 9999 FEW020 BKN070 15/13 Q1008 NOSIG
  • 261550Z 15011KT 9999 FEW010 BKN056 15/13 Q1008 NOSIG
  • 261520Z 15011KT 110V180 9999 FEW010 BKN050 15/13 Q1008 NOSIG
  • 261450Z 14012KT 9000 FEW010 BKN050 15/13 Q1008 NOSIG
  • 261420Z 13013KT 8000 SCT060 BKN070 15/13 Q1008 NOSIG

TAF TAF LIPZ
Valide du 26 à 06h jusqu'au 27 à 12h UTC


260500Z 2606/2712 VRB05KT 6000 SCT025 BKN040
BECMG 2608/2610 16012KT
TEMPO 2608/2615 RA
TEMPO 2615/2622 SHRA
BECMG 2618/2620 03010KT
BECMG 2700/2702 VRB05KT
TEMPO 2700/2706 TSRA
Pas de NOTAMs connus pour ce terrain.
1 SIGMET publié pour la FIR Milano (LIMM) :
 
Orages noyés dans la masse
LIMM SIGMET 6 VALID 261635/261835 LIMM- LIMM MILANO FIR EMBD TS FCST WI N4347 E00735 - N4310 E00944 - N4335 E01016 - N4342 E01110 - N4337 E01210 - N4437 E01013 - N4537 E01352 - N4625 E01316 - N4642 E01221 - N4633 E01110 - N4552 E00859 - N4347 E00735 TOP FL300 STNR NC=



MET'MAP, la Météo Aéronautique d'un coup d'oeil ! - Copyright ORBIFLY Décembre 2007 - Disclaimer

ORBIFLY MET'MAP TEAM :

Programmation & Développement : Alexandra Zaïnal
Conception & Développement : Baudouin d'Aumeries
Co-Programmation & Développement : Marc-Olivier Méhu
Soutien technique & logistique : Manuel Goepfert

Contact : metmap@orbifly.com




SOURCES & CREDITS :

   NOAA